createdAt,value
2024-01-24T00:00:55.936Z,100165.25
2024-01-24T00:03:22.678Z,100146.03
2024-01-24T00:05:49.349Z,100153.16
2024-01-24T00:08:15.864Z,100149.72
2024-01-24T00:10:42.448Z,100136.59
2024-01-24T00:13:09.034Z,100118.38
2024-01-24T00:15:35.667Z,100114.66
2024-01-24T00:18:02.417Z,100101.72
2024-01-24T00:20:30.328Z,100099.97
2024-01-24T00:22:56.867Z,100109.53
2024-01-24T00:25:23.438Z,100106.91
2024-01-24T00:27:50.256Z,100102.44
2024-01-24T00:30:16.784Z,100091.09
2024-01-24T00:32:43.537Z,100078.91
2024-01-24T00:35:10.152Z,100070.38
2024-01-24T00:37:36.730Z,100081.50
2024-01-24T00:40:04.406Z,100086.69
2024-01-24T00:42:31.023Z,100099.81
2024-01-24T00:44:57.547Z,100105.94
2024-01-24T00:47:24.089Z,100111.22
2024-01-24T00:49:50.648Z,100082.66
2024-01-24T00:52:17.286Z,100086.75
2024-01-24T00:54:43.899Z,100091.09
2024-01-24T00:57:10.542Z,100072.00
2024-01-24T00:59:37.146Z,100071.75
2024-01-24T01:02:03.919Z,100075.41
2024-01-24T01:04:30.514Z,100071.94
2024-01-24T01:06:57.044Z,100078.91
2024-01-24T01:09:23.643Z,100064.84
2024-01-24T01:11:50.602Z,100072.81
2024-01-24T01:14:17.163Z,100069.25
2024-01-24T01:16:43.721Z,100067.56
2024-01-24T01:19:10.409Z,100046.69
2024-01-24T01:21:37.157Z,100058.75
2024-01-24T01:24:03.994Z,100050.25
2024-01-24T01:26:33.936Z,100069.31
2024-01-24T01:29:00.508Z,100060.53
2024-01-24T01:31:27.067Z,100037.06
2024-01-24T01:33:53.731Z,100047.41
2024-01-24T01:36:23.560Z,100054.53
2024-01-24T01:38:51.108Z,100050.03
2024-01-24T01:41:18.338Z,100056.22
2024-01-24T01:43:45.793Z,100049.31
2024-01-24T01:46:22.953Z,100042.09
2024-01-24T01:48:51.529Z,100043.81
2024-01-24T01:51:19.582Z,100044.72
2024-01-24T01:53:46.985Z,100050.97
2024-01-24T01:56:16.436Z,100047.41
2024-01-24T01:58:43.797Z,100042.47
2024-01-24T02:01:10.641Z,100048.25
2024-01-24T02:03:37.675Z,100051.00
2024-01-24T02:06:05.224Z,100034.44
2024-01-24T02:08:33.679Z,100022.97
2024-01-24T02:11:00.384Z,100035.22
2024-01-24T02:13:32.786Z,100044.03
2024-01-24T02:16:00.456Z,100043.88
2024-01-24T02:18:27.151Z,100047.63
2024-01-24T02:20:54.009Z,100045.72
2024-01-24T02:23:23.536Z,100045.78
2024-01-24T02:25:51.229Z,100034.50
2024-01-24T02:28:18.194Z,100042.88
2024-01-24T02:30:45.597Z,100024.72
2024-01-24T02:33:13.009Z,100033.38
2024-01-24T02:35:39.672Z,100023.66
2024-01-24T02:38:06.696Z,100027.22
2024-01-24T02:40:33.377Z,100016.78
2024-01-24T02:43:00.168Z,100008.16
2024-01-24T02:45:26.802Z,100010.81
2024-01-24T02:47:53.449Z,100012.53
2024-01-24T02:50:20.018Z,100018.56
2024-01-24T02:52:46.610Z,100019.50
2024-01-24T02:55:18.801Z,100013.44
2024-01-24T02:57:45.947Z,100017.63
2024-01-24T03:00:14.296Z,100014.97
2024-01-24T03:02:41.191Z,100009.72
2024-01-24T03:05:10.403Z,100007.97
2024-01-24T03:07:38.441Z,100015.81
2024-01-24T03:10:05.874Z,100007.22
2024-01-24T03:12:33.157Z,99999.22
2024-01-24T03:14:59.770Z,99997.34
2024-01-24T03:17:26.629Z,100010.38
2024-01-24T03:19:53.178Z,100005.22
2024-01-24T03:22:19.840Z,100006.03
2024-01-24T03:24:46.517Z,100023.50
2024-01-24T03:27:13.155Z,100012.38
2024-01-24T03:29:42.251Z,100000.06
2024-01-24T03:32:08.784Z,100006.88
2024-01-24T03:34:35.387Z,100014.78
2024-01-24T03:37:02.010Z,100007.31
2024-01-24T03:39:28.997Z,100008.66
2024-01-24T03:41:55.623Z,99998.38
2024-01-24T03:44:22.249Z,99996.41
2024-01-24T03:46:48.942Z,99993.25
2024-01-24T03:49:16.219Z,99999.03
2024-01-24T03:51:42.902Z,99987.00
2024-01-24T03:54:09.561Z,100001.63
2024-01-24T03:56:36.113Z,99999.91
2024-01-24T03:59:02.698Z,100014.97
2024-01-24T04:01:29.293Z,100000.06
2024-01-24T04:03:56.117Z,99991.00
2024-01-24T04:06:22.791Z,100004.25
2024-01-24T04:08:49.385Z,100007.66
2024-01-24T04:11:15.930Z,100004.19
2024-01-24T04:13:44.151Z,100004.13
2024-01-24T04:16:10.985Z,100020.78
2024-01-24T04:18:38.617Z,100013.72
2024-01-24T04:21:05.392Z,100015.53
2024-01-24T04:23:31.953Z,99998.28
2024-01-24T04:25:58.607Z,100010.34
2024-01-24T04:28:25.195Z,100019.06
2024-01-24T04:30:51.738Z,100006.88
2024-01-24T04:33:18.505Z,99987.56
2024-01-24T04:35:45.103Z,100005.00
2024-01-24T04:38:11.787Z,100005.00
2024-01-24T04:40:38.341Z,100006.88
2024-01-24T04:43:05.101Z,99984.91
2024-01-24T04:45:31.915Z,99985.75
2024-01-24T04:47:59.094Z,99977.88
2024-01-24T04:50:25.885Z,99973.56
2024-01-24T04:52:52.523Z,99984.09
2024-01-24T04:55:19.116Z,99977.88
2024-01-24T04:57:45.856Z,99984.84
2024-01-24T05:00:13.769Z,99974.25
2024-01-24T05:02:41.115Z,99961.41
2024-01-24T05:05:08.582Z,99966.47
2024-01-24T05:07:36.118Z,99949.00
2024-01-24T05:10:04.717Z,99971.56
2024-01-24T05:12:31.996Z,99968.19
2024-01-24T05:14:58.573Z,99947.94
2024-01-24T05:17:25.145Z,99949.44
2024-01-24T05:19:51.773Z,99958.16
2024-01-24T05:22:18.594Z,99939.72
2024-01-24T05:24:48.665Z,99934.41
2024-01-24T05:27:16.755Z,99915.34
2024-01-24T05:29:46.516Z,99914.41
2024-01-24T05:32:13.154Z,99933.84
2024-01-24T05:34:39.826Z,99935.31
2024-01-24T05:37:06.742Z,99942.34
2024-01-24T05:39:33.336Z,99928.13
2024-01-24T05:42:00.280Z,99936.09
2024-01-24T05:44:26.898Z,99920.22
2024-01-24T05:46:53.446Z,99919.41
2024-01-24T05:49:20.171Z,99926.53
2024-01-24T05:51:46.830Z,99911.56
2024-01-24T05:54:13.428Z,99934.94
2024-01-24T05:56:40.976Z,99915.72
2024-01-24T05:59:07.533Z,99925.16
2024-01-24T06:01:34.353Z,99931.38
2024-01-24T06:04:01.147Z,99938.34
2024-01-24T06:06:27.807Z,99951.53
2024-01-24T06:08:54.434Z,99939.34
2024-01-24T06:11:21.047Z,99928.72
2024-01-24T06:13:48.537Z,99933.81
2024-01-24T06:16:15.658Z,99955.56
2024-01-24T06:18:43.142Z,99943.38
2024-01-24T06:21:10.478Z,99927.63
2024-01-24T06:23:37.195Z,99924.91
2024-01-24T06:26:03.909Z,99942.31
2024-01-24T06:28:30.460Z,99907.41
2024-01-24T06:30:57.060Z,99909.88
2024-01-24T06:33:25.622Z,99918.81
2024-01-24T06:35:52.337Z,99902.78
2024-01-24T06:38:19.007Z,99900.16
2024-01-24T06:40:45.681Z,99891.34
2024-01-24T06:43:15.813Z,99868.66
2024-01-24T06:45:42.549Z,99886.16
2024-01-24T06:48:09.495Z,99870.34
2024-01-24T06:50:36.216Z,99887.78
2024-01-24T06:53:02.926Z,99887.72
2024-01-24T06:55:29.457Z,99882.41
2024-01-24T06:57:56.906Z,99905.09
2024-01-24T07:00:24.537Z,99903.41
2024-01-24T07:02:51.126Z,99904.16
2024-01-24T07:05:18.335Z,99922.53
2024-01-24T07:07:45.132Z,99913.72
2024-01-24T07:10:12.869Z,99915.44
2024-01-24T07:12:46.312Z,99908.34
2024-01-24T07:15:13.583Z,99907.41
2024-01-24T07:17:41.038Z,99914.44
2024-01-24T07:20:08.514Z,99906.41
2024-01-24T07:22:35.112Z,99891.44
2024-01-24T07:25:02.764Z,99891.25
2024-01-24T07:27:31.739Z,99908.94
2024-01-24T07:29:59.034Z,99910.66
2024-01-24T07:32:25.699Z,99924.56
2024-01-24T07:34:52.329Z,99943.78
2024-01-24T07:37:19.009Z,99931.34
2024-01-24T07:39:45.621Z,99953.16
2024-01-24T07:42:12.155Z,99941.94
2024-01-24T07:44:38.723Z,99913.28
2024-01-24T07:47:05.828Z,99940.06
2024-01-24T07:49:36.539Z,99935.63
2024-01-24T07:52:05.433Z,99957.56
2024-01-24T07:54:32.449Z,99950.44
2024-01-24T07:56:59.373Z,99952.97
2024-01-24T07:59:26.074Z,99961.66
2024-01-24T08:01:52.790Z,99933.00
2024-01-24T08:04:20.315Z,99941.47
2024-01-24T08:06:48.794Z,99957.09
2024-01-24T08:09:15.822Z,99957.94
2024-01-24T08:11:42.856Z,99971.22
2024-01-24T08:14:09.959Z,99960.63
2024-01-24T08:16:36.900Z,99983.41
2024-01-24T08:19:04.019Z,99977.16
2024-01-24T08:21:30.678Z,99966.53
2024-01-24T08:23:57.391Z,99982.19
2024-01-24T08:26:25.294Z,99970.59
2024-01-24T08:28:53.526Z,99988.16
2024-01-24T08:31:20.312Z,99982.97
2024-01-24T08:33:50.334Z,99996.16
2024-01-24T08:36:18.845Z,99986.38
2024-01-24T08:38:45.443Z,99988.06
2024-01-24T08:41:12.023Z,99985.59
2024-01-24T08:43:38.580Z,99963.50
2024-01-24T08:46:05.249Z,99985.28
2024-01-24T08:48:31.953Z,99971.22
2024-01-24T08:50:58.539Z,99975.63
2024-01-24T08:53:25.092Z,99967.03
2024-01-24T08:55:51.616Z,99981.72
2024-01-24T08:58:18.272Z,99985.13
2024-01-24T09:00:46.395Z,100006.91
2024-01-24T09:03:13.462Z,99994.63
2024-01-24T09:05:40.103Z,99990.06
2024-01-24T09:08:06.935Z,100003.34
2024-01-24T09:10:33.652Z,100003.34
2024-01-24T09:13:00.488Z,100005.00
2024-01-24T09:15:27.165Z,99998.75
2024-01-24T09:17:53.897Z,100004.59
2024-01-24T09:20:20.616Z,100008.09
2024-01-24T09:22:47.973Z,100018.59
2024-01-24T09:25:15.722Z,100004.59
2024-01-24T09:27:42.845Z,100000.09
2024-01-24T09:30:09.679Z,99994.00
2024-01-24T09:32:36.380Z,99998.28
2024-01-24T09:35:03.470Z,99989.53
2024-01-24T09:37:30.145Z,99998.13
2024-01-24T09:39:57.380Z,99985.03
2024-01-24T09:42:27.664Z,99977.09
2024-01-24T09:44:59.148Z,99968.28
2024-01-24T09:47:26.650Z,99969.97
2024-01-24T09:49:53.478Z,99981.31
2024-01-24T09:52:25.122Z,99986.66
2024-01-24T09:54:58.860Z,99985.59
2024-01-24T09:57:26.398Z,99991.69
2024-01-24T09:59:52.977Z,100001.25
2024-01-24T10:02:19.644Z,100002.91
2024-01-24T10:04:46.522Z,100006.53
2024-01-24T10:07:14.415Z,100002.91
2024-01-24T10:09:41.264Z,100019.44
2024-01-24T10:12:07.942Z,100021.06
2024-01-24T10:14:34.909Z,100020.22
2024-01-24T10:17:01.851Z,100005.19
2024-01-24T10:19:28.904Z,100023.59
2024-01-24T10:21:55.795Z,100022.50
2024-01-24T10:24:22.538Z,100039.06
2024-01-24T10:26:49.301Z,100031.19
2024-01-24T10:29:16.763Z,100041.75
2024-01-24T10:31:43.540Z,100039.84
2024-01-24T10:34:10.614Z,100026.63
2024-01-24T10:36:43.466Z,100040.75
2024-01-24T10:39:13.287Z,100017.84
2024-01-24T10:41:44.273Z,100025.94
2024-01-24T10:44:15.741Z,100029.06
2024-01-24T10:46:42.432Z,100057.94
2024-01-24T10:49:11.076Z,100064.19
2024-01-24T10:51:38.204Z,100073.53
2024-01-24T10:54:06.111Z,100090.25
2024-01-24T10:56:34.227Z,100070.75
2024-01-24T10:59:04.402Z,100076.09
2024-01-24T11:01:31.198Z,100068.13
2024-01-24T11:03:58.754Z,100056.53
2024-01-24T11:06:29.905Z,100055.81
2024-01-24T11:09:09.123Z,100056.06
2024-01-24T11:11:37.748Z,100060.47
2024-01-24T11:14:04.363Z,100062.13
2024-01-24T11:16:32.581Z,100081.22
2024-01-24T11:19:00.960Z,100080.97
2024-01-24T11:21:32.823Z,100078.41
2024-01-24T11:24:00.526Z,100074.00
2024-01-24T11:26:27.029Z,100065.97
2024-01-24T11:29:16.699Z,100070.38
2024-01-24T11:31:44.505Z,100073.75
2024-01-24T11:34:14.811Z,100076.47
2024-01-24T11:36:48.832Z,100058.84
2024-01-24T11:39:40.986Z,100051.63
2024-01-24T11:42:53.480Z,100062.84
2024-01-24T11:45:23.935Z,100042.97
2024-01-24T11:47:51.117Z,100053.59
2024-01-24T11:50:20.746Z,100063.78
2024-01-24T11:52:49.063Z,100051.47
2024-01-24T11:55:15.575Z,100041.66
2024-01-24T11:57:42.459Z,100062.53
2024-01-24T12:00:10.476Z,100060.06
2024-01-24T12:02:37.912Z,100058.38
2024-01-24T12:05:05.842Z,100076.78
2024-01-24T12:07:32.801Z,100068.56
2024-01-24T12:09:59.658Z,100040.41
2024-01-24T12:12:28.722Z,100043.78
2024-01-24T12:14:58.951Z,100074.34
2024-01-24T12:17:26.341Z,100062.66
2024-01-24T12:19:53.185Z,100052.97
2024-01-24T12:22:36.818Z,100065.22
2024-01-24T12:25:05.038Z,100073.09
2024-01-24T12:27:31.780Z,100066.91
2024-01-24T12:29:58.777Z,100068.59
2024-01-24T12:32:25.522Z,100065.88
2024-01-24T12:34:55.105Z,100065.56
2024-01-24T12:37:24.456Z,100068.94
2024-01-24T12:39:54.196Z,100064.03
2024-01-24T12:42:21.400Z,100066.41
2024-01-24T12:44:53.708Z,100069.78
2024-01-24T12:47:20.514Z,100058.25
2024-01-24T12:49:47.500Z,100062.69
2024-01-24T12:52:14.227Z,100077.63
2024-01-24T12:54:41.014Z,100088.44
2024-01-24T12:57:07.676Z,100089.19
2024-01-24T12:59:34.845Z,100086.31
2024-01-24T13:02:03.844Z,100097.09
2024-01-24T13:04:30.627Z,100083.78
2024-01-24T13:06:57.246Z,100087.09
2024-01-24T13:09:23.957Z,100073.69
2024-01-24T13:11:51.127Z,100080.78
2024-01-24T13:14:17.971Z,100071.03
2024-01-24T13:16:45.324Z,100071.28
2024-01-24T13:19:11.918Z,100083.25
2024-01-24T13:21:42.649Z,100080.91
2024-01-24T13:24:09.695Z,100078.28
2024-01-24T13:26:36.354Z,100079.03
2024-01-24T13:29:02.845Z,100087.63
2024-01-24T13:31:29.490Z,100109.44
2024-01-24T13:33:56.416Z,100128.66
2024-01-24T13:36:23.367Z,100110.13
2024-01-24T13:38:50.118Z,100107.25
2024-01-24T13:41:17.573Z,100118.75
2024-01-24T13:43:44.287Z,100119.44
2024-01-24T13:46:11.799Z,100111.53
2024-01-24T13:48:38.568Z,100104.22
2024-01-24T13:51:05.167Z,100132.44
2024-01-24T13:53:31.741Z,100145.44
2024-01-24T13:55:58.414Z,100146.28
2024-01-24T13:58:28.115Z,100143.56
2024-01-24T14:00:55.463Z,100155.47
2024-01-24T14:03:22.258Z,100163.38
2024-01-24T14:05:51.211Z,100170.19
2024-01-24T14:08:17.878Z,100164.72
2024-01-24T14:10:44.424Z,100165.78
2024-01-24T14:13:11.139Z,100157.66
2024-01-24T14:15:38.131Z,100171.78
2024-01-24T14:18:06.348Z,100179.00
2024-01-24T14:20:34.384Z,100186.91
2024-01-24T14:23:01.222Z,100203.31
2024-01-24T14:25:27.667Z,100201.38
2024-01-24T14:27:54.287Z,100204.78
2024-01-24T14:30:21.030Z,100203.16
2024-01-24T14:32:47.618Z,100194.84
2024-01-24T14:35:17.649Z,100217.63
2024-01-24T14:37:45.480Z,100221.88
2024-01-24T14:40:14.768Z,100238.38
2024-01-24T14:42:42.350Z,100229.69
2024-01-24T14:45:09.532Z,100225.97
2024-01-24T14:47:36.127Z,100232.75
2024-01-24T14:50:02.853Z,100222.56
2024-01-24T14:52:29.535Z,100240.59
2024-01-24T14:54:56.183Z,100242.88
2024-01-24T14:57:22.774Z,100240.09
2024-01-24T14:59:49.432Z,100246.97
2024-01-24T15:02:17.039Z,100262.63
2024-01-24T15:04:43.596Z,100254.69
2024-01-24T15:07:10.377Z,100264.66
2024-01-24T15:09:37.069Z,100269.69
2024-01-24T15:12:04.746Z,100267.72
2024-01-24T15:14:31.295Z,100280.44
2024-01-24T15:16:58.365Z,100275.31
2024-01-24T15:19:25.344Z,100284.69
2024-01-24T15:21:52.501Z,100289.81
2024-01-24T15:24:20.906Z,100295.66
2024-01-24T15:26:47.658Z,100293.97
2024-01-24T15:29:14.078Z,100289.28
2024-01-24T15:31:40.692Z,100309.97
2024-01-24T15:34:07.724Z,100295.13
2024-01-24T15:36:35.443Z,100282.88
2024-01-24T15:39:02.315Z,100266.13
2024-01-24T15:41:29.256Z,100299.28
2024-01-24T15:43:57.614Z,100297.06
2024-01-24T15:46:26.340Z,100303.47
2024-01-24T15:48:53.131Z,100305.81
2024-01-24T15:51:19.815Z,100307.25
2024-01-24T15:53:46.277Z,100317.81
2024-01-24T15:56:13.128Z,100310.75
2024-01-24T15:58:40.240Z,100334.72
2024-01-24T16:01:07.056Z,100336.50
2024-01-24T16:03:34.939Z,100331.94
2024-01-24T16:06:03.180Z,100335.16
2024-01-24T16:08:30.728Z,100325.34
2024-01-24T16:10:57.922Z,100327.53
2024-01-24T16:13:24.903Z,100324.88
2024-01-24T16:15:53.247Z,100336.31
2024-01-24T16:18:19.865Z,100339.72
2024-01-24T16:20:46.327Z,100349.34
2024-01-24T16:23:12.938Z,100363.56
2024-01-24T16:25:39.437Z,100367.81
2024-01-24T16:28:06.202Z,100364.44
2024-01-24T16:30:36.284Z,100362.25
2024-01-24T16:33:03.287Z,100353.47
2024-01-24T16:35:30.016Z,100364.44
2024-01-24T16:37:56.551Z,100362.31
2024-01-24T16:40:23.134Z,100371.59
2024-01-24T16:42:50.598Z,100374.41
2024-01-24T16:45:17.796Z,100370.91
2024-01-24T16:47:46.034Z,100374.31
2024-01-24T16:50:13.185Z,100358.75
2024-01-24T16:52:40.930Z,100366.94
2024-01-24T16:55:08.616Z,100379.09
2024-01-24T16:57:36.653Z,100386.75
2024-01-24T17:00:05.367Z,100390.50
2024-01-24T17:02:38.456Z,100387.97
2024-01-24T17:05:11.107Z,100394.00
2024-01-24T17:07:37.981Z,100386.75
2024-01-24T17:10:05.087Z,100400.16
2024-01-24T17:12:33.507Z,100410.88
2024-01-24T17:15:00.497Z,100397.50
2024-01-24T17:17:27.117Z,100402.81
2024-01-24T17:19:53.708Z,100386.94
2024-01-24T17:22:20.950Z,100394.94
2024-01-24T17:24:47.502Z,100390.78
2024-01-24T17:27:13.960Z,100395.31
2024-01-24T17:29:40.553Z,100405.09
2024-01-24T17:32:07.069Z,100415.59
2024-01-24T17:34:34.341Z,100415.81
2024-01-24T17:37:01.359Z,100441.88
2024-01-24T17:39:28.256Z,100442.00
2024-01-24T17:41:55.040Z,100436.88
2024-01-24T17:44:21.576Z,100443.00
2024-01-24T17:46:48.172Z,100444.09
2024-01-24T17:49:16.591Z,100444.19
2024-01-24T17:51:43.892Z,100450.50
2024-01-24T17:54:10.676Z,100445.13
2024-01-24T17:56:37.449Z,100449.63
2024-01-24T17:59:04.243Z,100445.06
2024-01-24T18:01:32.543Z,100445.38
2024-01-24T18:03:59.511Z,100461.22
2024-01-24T18:06:26.886Z,100467.44
2024-01-24T18:08:53.612Z,100472.88
2024-01-24T18:11:20.176Z,100485.06
2024-01-24T18:13:46.760Z,100496.63
2024-01-24T18:16:13.357Z,100508.22
2024-01-24T18:18:39.968Z,100508.03
2024-01-24T18:21:09.149Z,100519.47
2024-01-24T18:23:36.734Z,100512.47
2024-01-24T18:26:03.314Z,100507.38
2024-01-24T18:28:29.893Z,100516.06
2024-01-24T18:30:56.872Z,100513.75
2024-01-24T18:33:23.682Z,100514.50
2024-01-24T18:35:50.444Z,100510.34
2024-01-24T18:38:18.122Z,100511.97
2024-01-24T18:40:44.765Z,100508.38
2024-01-24T18:43:11.437Z,100508.63
2024-01-24T18:45:38.138Z,100504.13
2024-01-24T18:48:05.425Z,100506.75
2024-01-24T18:50:32.190Z,100512.13
2024-01-24T18:52:59.053Z,100508.47
2024-01-24T18:55:25.572Z,100525.41
2024-01-24T18:57:52.165Z,100518.34
2024-01-24T19:00:19.759Z,100525.41
2024-01-24T19:02:47.402Z,100517.56
2024-01-24T19:05:19.830Z,100524.63
2024-01-24T19:07:53.659Z,100537.66
2024-01-24T19:10:20.209Z,100543.09
2024-01-24T19:12:47.208Z,100542.34
2024-01-24T19:15:13.878Z,100548.53
2024-01-24T19:17:40.982Z,100537.97
2024-01-24T19:20:08.185Z,100546.84
2024-01-24T19:22:34.866Z,100534.75
2024-01-24T19:25:02.137Z,100553.81
2024-01-24T19:27:28.825Z,100554.00
2024-01-24T19:29:55.340Z,100552.97
2024-01-24T19:32:21.997Z,100534.22
2024-01-24T19:34:56.973Z,100546.22
2024-01-24T19:37:23.896Z,100554.91
2024-01-24T19:39:50.513Z,100547.00
2024-01-24T19:42:17.861Z,100545.53
2024-01-24T19:44:44.564Z,100553.38
2024-01-24T19:47:11.446Z,100550.72
2024-01-24T19:49:38.284Z,100556.09
2024-01-24T19:52:05.235Z,100558.72
2024-01-24T19:54:31.823Z,100555.25
2024-01-24T19:56:58.425Z,100552.75
2024-01-24T19:59:25.239Z,100536.22
2024-01-24T20:01:53.097Z,100532.59
2024-01-24T20:04:20.375Z,100526.53
2024-01-24T20:06:47.102Z,100531.66
2024-01-24T20:09:16.596Z,100530.81
2024-01-24T20:11:43.396Z,100525.66
2024-01-24T20:14:10.020Z,100513.06
2024-01-24T20:16:36.596Z,100536.06
2024-01-24T20:19:03.280Z,100542.53
2024-01-24T20:21:30.119Z,100533.69
2024-01-24T20:23:58.128Z,100527.47
2024-01-24T20:26:25.802Z,100525.84
2024-01-24T20:28:52.869Z,100529.41
2024-01-24T20:31:19.421Z,100526.84
2024-01-24T20:33:46.076Z,100522.53
2024-01-24T20:36:12.837Z,100520.81
2024-01-24T20:38:42.812Z,100519.88
2024-01-24T20:41:11.112Z,100509.34
2024-01-24T20:43:39.237Z,100513.75
2024-01-24T20:46:09.836Z,100500.25
2024-01-24T20:48:37.675Z,100514.66
2024-01-24T20:51:04.998Z,100518.50
2024-01-24T20:53:31.819Z,100520.97
2024-01-24T20:55:58.904Z,100514.91
2024-01-24T20:58:26.086Z,100520.03
2024-01-24T21:00:53.341Z,100520.03
2024-01-24T21:03:21.179Z,100521.97
2024-01-24T21:05:49.045Z,100518.50
2024-01-24T21:08:15.839Z,100522.91
2024-01-24T21:10:49.007Z,100519.50
2024-01-24T21:13:22.050Z,100515.94
2024-01-24T21:15:48.715Z,100522.81
2024-01-24T21:18:16.456Z,100514.22
2024-01-24T21:20:43.412Z,100518.81
2024-01-24T21:23:10.545Z,100509.97
2024-01-24T21:25:37.154Z,100510.13
2024-01-24T21:28:04.183Z,100525.78
2024-01-24T21:30:30.779Z,100515.25
2024-01-24T21:32:57.403Z,100500.34
2024-01-24T21:35:23.956Z,100518.88
2024-01-24T21:37:50.765Z,100506.72
2024-01-24T21:40:17.402Z,100509.28
2024-01-24T21:42:44.353Z,100512.00
2024-01-24T21:45:11.086Z,100512.16
2024-01-24T21:47:38.272Z,100512.91
2024-01-24T21:50:06.534Z,100516.56
2024-01-24T21:52:33.144Z,100498.13
2024-01-24T21:54:59.730Z,100513.84
2024-01-24T21:57:26.311Z,100510.44
2024-01-24T21:59:53.013Z,100510.44
2024-01-24T22:02:19.452Z,100514.00
2024-01-24T22:04:46.092Z,100518.50
2024-01-24T22:07:12.836Z,100523.69
2024-01-24T22:09:39.618Z,100510.59
2024-01-24T22:12:06.335Z,100512.53
2024-01-24T22:14:32.862Z,100513.22
2024-01-24T22:16:59.492Z,100513.31
2024-01-24T22:19:25.986Z,100513.38
2024-01-24T22:21:52.643Z,100519.50
2024-01-24T22:24:20.734Z,100517.81
2024-01-24T22:26:47.299Z,100514.56
2024-01-24T22:29:13.890Z,100517.91
2024-01-24T22:31:40.530Z,100527.59
2024-01-24T22:34:07.340Z,100521.44
2024-01-24T22:36:34.227Z,100526.81
2024-01-24T22:39:00.842Z,100523.31
2024-01-24T22:41:27.457Z,100518.03
2024-01-24T22:43:56.357Z,100506.09
2024-01-24T22:46:23.617Z,100516.34
2024-01-24T22:48:50.399Z,100520.69
2024-01-24T22:51:17.951Z,100522.47
2024-01-24T22:53:44.452Z,100513.78
2024-01-24T22:56:11.284Z,100519.88
2024-01-24T22:58:37.911Z,100518.38
2024-01-24T23:01:04.837Z,100510.53
2024-01-24T23:03:31.645Z,100496.63
2024-01-24T23:05:58.471Z,100500.91
2024-01-24T23:08:25.098Z,100500.06
2024-01-24T23:10:51.737Z,100507.97
2024-01-24T23:13:18.584Z,100506.19
2024-01-24T23:15:45.141Z,100515.03
2024-01-24T23:18:11.752Z,100506.28
2024-01-24T23:20:38.394Z,100508.03
2024-01-24T23:23:05.386Z,100514.09
2024-01-24T23:25:33.273Z,100513.53
2024-01-24T23:27:59.941Z,100506.34
2024-01-24T23:30:26.598Z,100522.25
2024-01-24T23:32:53.205Z,100526.66
2024-01-24T23:35:20.232Z,100529.34
2024-01-24T23:37:46.984Z,100530.28
2024-01-24T23:40:14.024Z,100536.50
2024-01-24T23:42:41.124Z,100525.09
2024-01-24T23:45:08.266Z,100524.41
2024-01-24T23:47:34.822Z,100520.84
2024-01-24T23:50:01.663Z,100534.63
2024-01-24T23:52:28.488Z,100527.75
2024-01-24T23:54:55.141Z,100534.00
2024-01-24T23:57:21.742Z,100531.38
2024-01-24T23:59:49.455Z,100540.06
